Time;durP1;ratioP1;P1;durP2;ratioP2;P2;SDS_P1;SDS_P2;PMS_P1;PMS_P2;Temp;Humidity;BMP_temperature;BMP_pressure;BME280_temperature;BME280_humidity;BME280_pressure;Samples;Min_cycle;Max_cycle;Signal;HPM_P1;HPM_P2
2023/11/14 00:00:11;;;;;;;20.02;5.15;;;12.30;99.90;;;;;;4163274;28;20477;-72
2023/11/14 00:02:12;;;;;;;20.33;4.38;;;12.30;99.90;;;;;;4177069;28;20037;-70
2023/11/14 00:04:13;;;;;;;29.08;4.95;;;12.30;99.90;;;;;;4179922;28;20033;-71
2023/11/14 00:06:13;;;;;;;32.88;5.80;;;12.30;99.90;;;;;;4177411;28;20349;-71
2023/11/14 00:08:14;;;;;;;20.77;5.13;;;12.30;99.90;;;;;;4179954;28;20037;-71
2023/11/14 00:10:15;;;;;;;24.98;5.13;;;12.30;99.90;;;;;;4177196;28;20094;-72
2023/11/14 00:12:15;;;;;;;20.42;4.35;;;12.30;99.90;;;;;;4175575;28;20095;-71
2023/11/14 00:14:16;;;;;;;24.13;4.97;;;12.30;99.90;;;;;;4171760;28;20033;-71
2023/11/14 00:16:17;;;;;;;35.28;5.68;;;12.30;99.90;;;;;;4178153;28;20111;-71
2023/11/14 00:18:18;;;;;;;24.30;4.57;;;12.30;99.90;;;;;;4177483;28;20033;-71
2023/11/14 00:20:18;;;;;;;29.85;6.32;;;12.30;99.90;;;;;;4165293;28;20033;-71
2023/11/14 00:22:19;;;;;;;29.50;5.68;;;12.30;99.90;;;;;;4162682;28;20508;-71
2023/11/14 00:24:20;;;;;;;34.03;6.15;;;12.30;99.90;;;;;;4163000;28;20048;-71
2023/11/14 00:26:20;;;;;;;16.48;3.80;;;12.30;99.90;;;;;;4162096;28;20401;-71
2023/11/14 00:28:21;;;;;;;28.38;5.50;;;12.30;99.90;;;;;;4173574;28;20040;-71
2023/11/14 00:30:22;;;;;;;27.73;5.45;;;12.30;99.90;;;;;;4173260;28;20048;-71
2023/11/14 00:32:23;;;;;;;25.60;5.40;;;12.30;99.90;;;;;;4178578;28;20375;-71
2023/11/14 00:34:24;;;;;;;21.48;4.88;;;12.30;99.90;;;;;;4179330;28;20051;-71
2023/11/14 00:36:25;;;;;;;24.52;4.82;;;12.30;99.90;;;;;;4178050;28;20045;-71
2023/11/14 00:38:26;;;;;;;29.35;5.93;;;12.30;99.90;;;;;;4179222;28;20045;-72
2023/11/14 00:40:27;;;;;;;21.08;4.35;;;12.30;99.90;;;;;;4164168;28;20072;-71
2023/11/14 00:42:27;;;;;;;27.02;5.93;;;12.30;99.90;;;;;;4162596;28;20033;-71
2023/11/14 00:44:28;;;;;;;32.33;5.95;;;12.40;99.90;;;;;;4170763;28;20397;-72
2023/11/14 00:46:29;;;;;;;24.05;4.75;;;12.30;99.90;;;;;;4178061;28;20052;-71
2023/11/14 00:48:29;;;;;;;19.98;4.20;;;12.30;99.90;;;;;;4178870;28;20040;-73
2023/11/14 00:50:30;;;;;;;21.08;4.68;;;12.40;99.90;;;;;;4177126;28;20481;-73
2023/11/14 00:52:31;;;;;;;24.88;4.88;;;12.30;99.90;;;;;;4178887;28;20044;-73
2023/11/14 00:54:32;;;;;;;24.83;5.20;;;12.30;99.90;;;;;;4178852;28;20045;-73
2023/11/14 00:56:33;;;;;;;25.10;5.38;;;12.30;99.90;;;;;;4177550;28;20057;-73
2023/11/14 00:58:34;;;;;;;22.45;3.83;;;12.40;99.90;;;;;;4169828;28;20460;-73
2023/11/14 01:00:35;;;;;;;33.47;5.70;;;12.40;99.90;;;;;;4163634;28;20132;-73
2023/11/14 01:02:35;;;;;;;26.33;5.32;;;12.30;99.90;;;;;;4178344;28;20353;-73
2023/11/14 01:04:40;;;;;;;28.17;5.40;;;12.30;99.90;;;;;;4178981;28;20094;-72
2023/11/14 01:06:40;;;;;;;25.13;4.55;;;12.30;99.90;;;;;;4176191;28;20448;-73
2023/11/14 01:08:41;;;;;;;25.60;4.80;;;12.40;99.90;;;;;;4178448;28;20036;-73
2023/11/14 01:10:41;;;;;;;22.33;4.65;;;12.40;99.90;;;;;;4176136;28;20033;-73
2023/11/14 01:12:42;;;;;;;28.48;5.65;;;12.40;99.90;;;;;;4176544;28;20060;-73
2023/11/14 01:14:43;;;;;;;33.35;5.65;;;12.30;99.90;;;;;;4178725;28;20029;-73
2023/11/14 01:16:43;;;;;;;23.23;5.10;;;12.30;99.90;;;;;;4177653;28;20045;-73
2023/11/14 01:18:44;;;;;;;27.02;5.55;;;12.40;99.90;;;;;;4175979;28;20076;-73
2023/11/14 01:20:45;;;;;;;31.88;5.63;;;12.40;99.90;;;;;;4161401;28;20029;-73
2023/11/14 01:22:45;;;;;;;21.77;5.43;;;12.40;99.90;;;;;;4161880;28;20060;-73
2023/11/14 01:24:46;;;;;;;27.58;5.22;;;12.30;99.90;;;;;;4177875;28;20029;-73
2023/11/14 01:26:46;;;;;;;23.75;4.95;;;12.30;99.90;;;;;;4177619;28;20501;-73
2023/11/14 01:28:47;;;;;;;28.73;5.53;;;12.30;99.90;;;;;;4177460;28;20037;-74
2023/11/14 01:30:48;;;;;;;26.23;5.50;;;12.20;99.90;;;;;;4176843;28;20388;-73
2023/11/14 01:32:48;;;;;;;30.67;6.07;;;12.30;99.90;;;;;;4178390;28;20109;-73
2023/11/14 01:34:49;;;;;;;23.25;4.32;;;12.20;99.90;;;;;;4178082;28;20087;-73
2023/11/14 01:36:51;;;;;;;24.52;5.97;;;12.20;99.90;;;;;;4177240;28;20044;-73
2023/11/14 01:38:51;;;;;;;27.25;5.25;;;12.20;99.90;;;;;;4177221;28;20033;-73
2023/11/14 01:40:52;;;;;;;19.08;4.80;;;12.10;99.90;;;;;;4160399;28;20045;-73
2023/11/14 01:43:00;;;;;;;27.75;4.97;;;12.20;99.90;;;;;;4171545;28;20039;-73
2023/11/14 01:45:00;;;;;;;22.27;4.85;;;12.10;99.90;;;;;;4177841;28;20112;-73
2023/11/14 01:47:01;;;;;;;25.17;4.47;;;12.20;99.90;;;;;;4191298;28;20048;-73
2023/11/14 01:49:02;;;;;;;32.70;6.25;;;12.10;99.90;;;;;;4175349;28;20511;-73
2023/11/14 01:51:02;;;;;;;23.90;6.00;;;12.10;99.90;;;;;;4176417;28;20033;-73
2023/11/14 01:53:07;;;;;;;25.85;5.90;;;12.10;99.90;;;;;;4178035;28;20094;-73
2023/11/14 01:55:08;;;;;;;19.10;4.75;;;12.10;99.90;;;;;;4176678;28;20037;-75
2023/11/14 01:57:12;;;;;;;28.63;5.15;;;12.10;99.90;;;;;;4177557;28;20048;-73
2023/11/14 01:59:13;;;;;;;22.50;4.75;;;12.10;99.90;;;;;;4162138;28;20095;-67
2023/11/14 02:01:14;;;;;;;29.42;4.90;;;12.10;99.90;;;;;;4160148;28;20469;-67
2023/11/14 02:03:15;;;;;;;31.17;6.05;;;12.10;99.90;;;;;;4174556;28;20041;-67
2023/11/14 02:05:18;;;;;;;21.67;5.03;;;12.10;99.90;;;;;;4175065;28;20095;-67
2023/11/14 02:07:20;;;;;;;31.63;5.78;;;12.00;99.90;;;;;;4177797;28;20397;-67
2023/11/14 02:09:21;;;;;;;29.98;4.55;;;12.00;99.90;;;;;;4173058;28;20552;-67
2023/11/14 02:11:21;;;;;;;28.75;5.43;;;12.10;99.90;;;;;;4176480;28;20036;-66
2023/11/14 02:13:22;;;;;;;25.00;5.05;;;12.10;99.90;;;;;;4177633;28;20362;-67
2023/11/14 02:15:23;;;;;;;26.23;5.57;;;12.10;99.90;;;;;;4176535;28;20087;-67
2023/11/14 02:17:25;;;;;;;29.90;5.68;;;12.10;99.90;;;;;;4175840;28;20041;-67
2023/11/14 02:19:26;;;;;;;22.52;5.28;;;12.10;99.90;;;;;;4170028;28;20065;-67
2023/11/14 02:21:27;;;;;;;21.98;5.03;;;12.10;99.90;;;;;;4176041;28;20033;-67
2023/11/14 02:23:34;;;;;;;22.88;5.20;;;12.10;99.90;;;;;;4177816;28;20465;-67
2023/11/14 02:25:34;;;;;;;27.73;5.65;;;12.10;99.90;;;;;;4176200;28;20044;-68
2023/11/14 02:27:36;;;;;;;28.20;5.75;;;12.10;99.90;;;;;;4177541;28;20029;-68
2023/11/14 02:29:38;;;;;;;24.35;4.95;;;12.10;99.90;;;;;;4174058;28;20037;-67
2023/11/14 02:31:39;;;;;;;28.38;5.57;;;12.10;99.90;;;;;;4176170;28;20477;-67
2023/11/14 02:33:40;;;;;;;28.88;5.35;;;12.10;99.90;;;;;;4177576;28;20033;-67
2023/11/14 02:35:41;;;;;;;26.25;5.25;;;12.20;99.90;;;;;;4176015;28;20035;-67
2023/11/14 02:37:41;;;;;;;20.63;4.65;;;12.10;99.90;;;;;;4176229;28;20341;-67
2023/11/14 02:39:42;;;;;;;34.50;6.05;;;12.10;99.90;;;;;;4174808;28;20545;-67
2023/11/14 02:41:43;;;;;;;20.75;4.75;;;12.10;99.90;;;;;;4174683;28;20063;-67
2023/11/14 02:43:43;;;;;;;28.35;5.03;;;12.20;99.90;;;;;;4177246;28;20122;-67
2023/11/14 02:45:44;;;;;;;26.48;4.93;;;12.20;99.90;;;;;;4175947;28;20025;-67
2023/11/14 02:47:44;;;;;;;25.90;5.07;;;12.10;99.90;;;;;;4177378;28;20468;-67
2023/11/14 02:49:54;;;;;;;29.33;5.13;;;12.10;99.90;;;;;;4175408;28;20068;-67
2023/11/14 02:51:55;;;;;;;25.05;5.40;;;12.10;99.90;;;;;;4176586;28;20377;-67
2023/11/14 02:53:56;;;;;;;25.77;5.47;;;12.10;99.90;;;;;;4177146;28;20052;-67
2023/11/14 02:55:56;;;;;;;24.75;5.05;;;12.10;99.90;;;;;;4163843;28;20449;-67
2023/11/14 02:57:57;;;;;;;26.48;4.70;;;12.10;99.90;;;;;;4176889;28;20504;-67
2023/11/14 02:59:57;;;;;;;28.90;5.20;;;12.10;99.90;;;;;;4172433;28;20048;-67
2023/11/14 03:01:58;;;;;;;31.50;5.60;;;12.10;99.90;;;;;;4175837;28;20058;-67
2023/11/14 03:03:58;;;;;;;29.85;4.72;;;12.10;99.90;;;;;;4176109;28;20029;-67
2023/11/14 03:06:02;;;;;;;26.67;5.40;;;12.10;99.90;;;;;;4180659;28;20088;-67
2023/11/14 03:08:03;;;;;;;29.92;6.07;;;12.10;99.90;;;;;;4176276;28;20045;-67
2023/11/14 03:10:04;;;;;;;26.10;5.38;;;12.10;99.90;;;;;;4171538;28;20033;-68
2023/11/14 03:12:05;;;;;;;32.10;5.75;;;12.10;99.90;;;;;;4174867;28;20116;-69
2023/11/14 03:14:06;;;;;;;24.75;4.97;;;12.10;99.90;;;;;;4179462;28;20029;-67
2023/11/14 03:16:12;;;;;;;20.92;4.88;;;12.10;99.90;;;;;;4182560;28;20179;-68
2023/11/14 03:18:13;;;;;;;29.65;4.97;;;12.10;99.90;;;;;;4183371;28;20433;-67
2023/11/14 03:20:14;;;;;;;21.23;4.55;;;12.10;99.90;;;;;;4180266;28;20036;-67
2023/11/14 03:22:15;;;;;;;33.58;6.13;;;12.10;99.90;;;;;;4184782;28;20460;-68
2023/11/14 03:24:15;;;;;;;27.40;5.28;;;12.10;99.90;;;;;;4183224;28;20039;-67
2023/11/14 03:26:16;;;;;;;27.40;4.95;;;12.00;99.90;;;;;;4176472;28;20378;-67
2023/11/14 03:28:16;;;;;;;23.73;5.03;;;12.00;99.90;;;;;;4189557;28;20079;-67
2023/11/14 03:30:19;;;;;;;18.58;4.72;;;12.00;99.90;;;;;;4172385;28;20033;-67
2023/11/14 03:32:19;;;;;;;25.23;4.85;;;12.00;99.90;;;;;;4176796;28;20035;-67
2023/11/14 03:34:20;;;;;;;26.40;5.25;;;12.00;99.90;;;;;;4174252;28;20065;-67
2023/11/14 03:36:20;;;;;;;22.10;4.70;;;12.00;99.90;;;;;;4162605;28;20044;-67
2023/11/14 03:38:21;;;;;;;27.17;5.32;;;12.00;99.90;;;;;;4171184;28;20033;-67
2023/11/14 03:40:22;;;;;;;24.90;5.32;;;12.00;99.90;;;;;;4161745;28;20041;-67
2023/11/14 03:42:22;;;;;;;25.65;4.65;;;12.00;99.90;;;;;;4166858;28;20409;-67
2023/11/14 03:44:23;;;;;;;23.80;5.15;;;12.00;99.90;;;;;;4176436;28;20087;-67
2023/11/14 03:46:23;;;;;;;20.50;4.47;;;12.00;99.90;;;;;;4175189;28;20036;-67
2023/11/14 03:48:24;;;;;;;27.63;5.72;;;12.00;99.90;;;;;;4176791;28;20043;-67
2023/11/14 03:50:25;;;;;;;31.50;5.68;;;12.00;99.90;;;;;;4169439;28;20060;-67
2023/11/14 03:52:25;;;;;;;21.33;4.78;;;12.00;99.90;;;;;;4171059;28;20454;-67
2023/11/14 03:54:26;;;;;;;27.05;5.22;;;12.00;99.90;;;;;;4176579;28;20040;-67
2023/11/14 03:56:26;;;;;;;30.48;5.15;;;12.00;99.90;;;;;;4175047;28;20048;-67
2023/11/14 03:58:27;;;;;;;24.30;5.75;;;12.00;99.90;;;;;;4176412;28;20041;-67
2023/11/14 04:00:27;;;;;;;31.35;5.50;;;12.00;99.90;;;;;;4171931;28;20044;-67
2023/11/14 04:02:29;;;;;;;18.35;4.40;;;12.00;99.90;;;;;;4174888;28;20045;-67
2023/11/14 04:04:30;;;;;;;31.58;5.55;;;12.00;99.90;;;;;;4176072;28;20065;-67
2023/11/14 04:06:30;;;;;;;26.27;5.03;;;12.00;99.90;;;;;;4175453;28;20032;-67
2023/11/14 04:08:32;;;;;;;19.95;3.92;;;12.00;99.90;;;;;;4176166;28;20067;-67
2023/11/14 04:10:32;;;;;;;23.13;4.82;;;12.10;99.90;;;;;;4172396;28;20041;-67
2023/11/14 04:12:33;;;;;;;22.15;4.88;;;12.00;99.90;;;;;;4160152;28;20055;-67
2023/11/14 04:14:34;;;;;;;28.20;4.55;;;12.00;99.90;;;;;;4167351;28;20112;-67
2023/11/14 04:16:34;;;;;;;20.90;4.22;;;12.00;99.90;;;;;;4174773;28;20055;-67
2023/11/14 04:18:35;;;;;;;25.88;4.90;;;12.00;99.90;;;;;;4175923;28;20037;-68
2023/11/14 04:20:35;;;;;;;25.08;5.05;;;12.00;99.90;;;;;;4173117;28;20401;-68
2023/11/14 04:22:36;;;;;;;27.63;5.15;;;12.00;99.90;;;;;;4177301;28;20052;-69
2023/11/14 04:24:36;;;;;;;23.70;4.80;;;12.00;99.90;;;;;;4179303;28;20091;-69
2023/11/14 04:26:37;;;;;;;29.75;5.28;;;12.10;99.90;;;;;;4169627;28;20045;-68
2023/11/14 04:28:37;;;;;;;29.58;5.60;;;12.00;99.90;;;;;;4169953;28;20039;-68
2023/11/14 04:30:38;;;;;;;31.35;5.75;;;12.00;99.90;;;;;;4176288;28;20037;-68
2023/11/14 04:32:39;;;;;;;26.45;5.13;;;12.00;99.90;;;;;;4178507;28;20112;-68
2023/11/14 04:34:39;;;;;;;24.33;5.45;;;12.00;99.90;;;;;;4179380;28;20039;-68
2023/11/14 04:36:41;;;;;;;30.60;5.65;;;12.00;99.90;;;;;;4176555;28;20051;-68
2023/11/14 04:38:42;;;;;;;18.88;4.15;;;12.00;99.90;;;;;;4178891;28;20041;-68
2023/11/14 04:40:43;;;;;;;21.67;4.22;;;12.00;99.90;;;;;;4175179;28;20033;-68
2023/11/14 04:42:45;;;;;;;25.42;4.95;;;12.00;99.90;;;;;;4177505;28;20033;-68
2023/11/14 04:44:50;;;;;;;23.02;5.45;;;12.00;99.90;;;;;;4190947;28;20032;-67
2023/11/14 04:46:50;;;;;;;22.55;5.32;;;12.00;99.90;;;;;;4172495;28;20583;-67
2023/11/14 04:48:51;;;;;;;28.33;5.43;;;11.90;99.90;;;;;;4175873;28;20107;-68
2023/11/14 04:50:51;;;;;;;26.38;4.53;;;11.90;99.90;;;;;;4175171;28;20036;-68
2023/11/14 04:52:53;;;;;;;22.02;5.15;;;12.00;99.90;;;;;;4175257;28;20114;-68
2023/11/14 04:54:53;;;;;;;20.80;4.72;;;12.00;99.90;;;;;;4175233;28;20521;-68
2023/11/14 04:56:54;;;;;;;26.08;4.50;;;12.00;99.90;;;;;;4168661;28;20100;-68
2023/11/14 04:58:55;;;;;;;16.60;3.72;;;12.00;99.90;;;;;;4175548;28;20091;-68
2023/11/14 05:00:55;;;;;;;21.00;3.88;;;12.00;99.90;;;;;;4161173;28;20535;-67
2023/11/14 05:02:56;;;;;;;21.20;3.95;;;12.00;99.90;;;;;;4161825;28;20049;-67
2023/11/14 05:04:57;;;;;;;25.52;4.72;;;12.10;99.90;;;;;;4175334;28;20043;-67
2023/11/14 05:06:58;;;;;;;20.13;4.43;;;12.00;99.90;;;;;;4177713;28;20045;-67
2023/11/14 05:08:59;;;;;;;26.25;4.43;;;12.00;99.90;;;;;;4177741;28;20033;-67
2023/11/14 05:11:03;;;;;;;37.90;5.88;;;12.00;99.90;;;;;;4175297;28;20040;-68
2023/11/14 05:13:04;;;;;;;27.98;5.72;;;12.00;99.90;;;;;;4178092;28;20382;-68
2023/11/14 05:15:07;;;;;;;26.23;5.05;;;12.00;99.90;;;;;;4194483;28;20480;-68
2023/11/14 05:17:08;;;;;;;25.05;4.50;;;12.00;99.90;;;;;;4185797;28;20041;-68
2023/11/14 05:19:09;;;;;;;19.30;4.50;;;12.00;99.90;;;;;;4176771;28;20061;-68
2023/11/14 05:21:10;;;;;;;25.35;5.32;;;12.00;99.90;;;;;;4171376;28;20041;-68
2023/11/14 05:23:10;;;;;;;24.55;4.80;;;12.00;99.90;;;;;;4175356;28;20120;-68
2023/11/14 05:25:11;;;;;;;22.50;4.20;;;12.00;99.90;;;;;;4177520;28;20044;-68
2023/11/14 05:27:12;;;;;;;20.58;4.90;;;12.00;99.90;;;;;;4177657;28;20488;-68
2023/11/14 05:29:13;;;;;;;24.50;4.75;;;12.00;99.90;;;;;;4171496;28;20052;-68
2023/11/14 05:31:14;;;;;;;29.33;5.55;;;12.00;99.90;;;;;;4171451;28;20115;-68
2023/11/14 05:33:15;;;;;;;20.25;4.40;;;12.00;99.90;;;;;;4177253;28;20033;-68
2023/11/14 05:35:16;;;;;;;16.35;3.60;;;12.00;99.90;;;;;;4176947;28;20029;-68
2023/11/14 05:37:17;;;;;;;22.65;4.63;;;12.00;99.90;;;;;;4178111;28;20037;-68
2023/11/14 05:39:18;;;;;;;23.90;4.63;;;12.00;99.90;;;;;;4174928;28;21467;-68
2023/11/14 05:41:18;;;;;;;21.48;4.78;;;11.90;99.90;;;;;;4177523;28;20048;-68
2023/11/14 05:43:19;;;;;;;22.35;5.45;;;12.00;99.90;;;;;;4176569;28;20033;-67
2023/11/14 05:45:19;;;;;;;22.50;5.00;;;11.90;99.90;;;;;;4177308;28;20025;-68
2023/11/14 05:47:20;;;;;;;25.42;4.72;;;11.90;99.90;;;;;;4177921;28;20033;-68
2023/11/14 05:49:21;;;;;;;25.00;5.20;;;11.90;99.90;;;;;;4177067;28;20489;-68
2023/11/14 05:51:21;;;;;;;27.52;4.13;;;11.90;99.90;;;;;;4166223;28;20037;-67
2023/11/14 05:53:22;;;;;;;19.92;4.13;;;11.90;99.90;;;;;;4165266;28;20049;-68
2023/11/14 05:55:22;;;;;;;23.95;4.90;;;11.90;99.90;;;;;;4175054;28;20036;-68
2023/11/14 05:57:23;;;;;;;29.75;5.15;;;11.90;99.90;;;;;;4172348;28;20056;-68
2023/11/14 05:59:24;;;;;;;20.60;4.20;;;11.90;99.90;;;;;;4174795;28;20061;-68
2023/11/14 06:01:25;;;;;;;20.77;4.82;;;11.90;99.90;;;;;;4170208;28;20037;-68
2023/11/14 06:03:25;;;;;;;19.58;4.40;;;11.90;99.90;;;;;;4173914;28;20473;-68
2023/11/14 06:05:26;;;;;;;25.45;4.80;;;12.00;99.90;;;;;;4162521;28;20041;-68
2023/11/14 06:07:27;;;;;;;25.98;4.90;;;11.90;99.90;;;;;;4187470;28;20374;-68
2023/11/14 06:09:27;;;;;;;28.95;5.57;;;12.00;99.90;;;;;;4173420;28;20049;-68
2023/11/14 06:11:29;;;;;;;27.67;5.63;;;11.90;99.90;;;;;;4172910;28;20481;-68
2023/11/14 06:13:29;;;;;;;26.95;5.05;;;11.90;99.90;;;;;;4173790;28;20036;-68
2023/11/14 06:15:30;;;;;;;22.95;5.45;;;11.90;99.90;;;;;;4172535;28;21101;-68
2023/11/14 06:17:30;;;;;;;23.85;4.78;;;11.90;99.90;;;;;;4174583;28;20037;-68
2023/11/14 06:19:31;;;;;;;19.30;3.72;;;11.90;99.90;;;;;;4176104;28;20033;-68
2023/11/14 06:21:31;;;;;;;25.48;5.03;;;11.90;99.90;;;;;;4174794;28;20052;-68
2023/11/14 06:23:32;;;;;;;26.58;5.57;;;11.90;99.90;;;;;;4171729;28;20036;-66
2023/11/14 06:25:33;;;;;;;31.60;5.63;;;11.90;99.90;;;;;;4174240;28;20029;-66
2023/11/14 06:27:34;;;;;;;23.85;4.43;;;11.90;99.90;;;;;;4173402;28;20079;-66
2023/11/14 06:29:34;;;;;;;31.08;5.10;;;11.90;99.90;;;;;;4171288;28;20039;-67
2023/11/14 06:31:35;;;;;;;26.95;4.78;;;11.90;99.90;;;;;;4173204;28;20029;-67
2023/11/14 06:33:36;;;;;;;31.08;5.30;;;11.90;99.90;;;;;;4174585;28;20472;-67
2023/11/14 06:35:37;;;;;;;23.98;5.10;;;11.90;99.90;;;;;;4173024;28;20021;-65
2023/11/14 06:37:38;;;;;;;22.40;4.55;;;12.00;99.90;;;;;;4174705;28;20084;-70
2023/11/14 06:39:40;;;;;;;31.60;5.47;;;11.90;99.90;;;;;;4173196;28;20045;-74
2023/11/14 06:41:40;;;;;;;25.48;4.88;;;12.00;99.90;;;;;;4173193;28;20493;-74
2023/11/14 06:43:41;;;;;;;22.25;5.10;;;11.90;99.90;;;;;;4173592;28;20037;-74
2023/11/14 06:45:42;;;;;;;26.95;5.60;;;12.00;99.90;;;;;;4173624;28;20060;-74
2023/11/14 06:47:42;;;;;;;34.35;5.55;;;12.00;99.90;;;;;;4166957;28;20041;-74
2023/11/14 06:49:44;;;;;;;27.60;4.75;;;12.00;99.90;;;;;;4172752;28;20033;-73
2023/11/14 06:51:44;;;;;;;27.10;5.18;;;12.00;99.90;;;;;;4170741;28;20033;-72
2023/11/14 06:53:47;;;;;;;27.60;5.20;;;12.00;99.90;;;;;;4174122;28;20447;-74
2023/11/14 06:55:48;;;;;;;17.80;4.35;;;12.00;99.90;;;;;;4155295;28;20124;-74
2023/11/14 06:57:50;;;;;;;21.67;5.45;;;12.10;99.90;;;;;;4145499;28;20093;-74
2023/11/14 06:59:51;;;;;;;24.92;5.30;;;12.00;99.90;;;;;;4151943;28;20551;-75
2023/11/14 07:01:52;;;;;;;29.40;5.47;;;12.10;99.90;;;;;;4178108;28;20031;-74
2023/11/14 07:03:53;;;;;;;24.23;4.72;;;12.10;99.90;;;;;;4174915;28;20047;-74
2023/11/14 07:05:53;;;;;;;25.30;4.90;;;12.10;99.90;;;;;;4173706;28;20698;-74
2023/11/14 07:07:54;;;;;;;26.75;5.32;;;12.10;99.90;;;;;;4189321;28;20044;-75
2023/11/14 07:09:57;;;;;;;21.75;4.28;;;12.10;99.90;;;;;;4169855;28;20041;-74
2023/11/14 07:11:57;;;;;;;;;;;12.10;99.90;;;;;;4172138;28;20075;-74
2023/11/14 07:13:59;;;;;;;25.83;5.13;;;12.10;99.90;;;;;;4168683;28;21910;-74
2023/11/14 07:15:59;;;;;;;24.17;4.82;;;12.10;99.90;;;;;;4168396;28;20068;-74
2023/11/14 07:18:01;;;;;;;25.70;4.88;;;12.10;99.90;;;;;;4172548;28;20460;-74
2023/11/14 07:20:10;;;;;;;32.63;5.97;;;12.00;99.90;;;;;;4170477;28;20033;-75
2023/11/14 07:22:12;;;;;;;25.08;4.93;;;12.10;99.90;;;;;;4168231;28;20025;-74
2023/11/14 07:24:13;;;;;;;24.95;5.47;;;12.10;99.90;;;;;;4159064;28;20037;-73
2023/11/14 07:26:14;;;;;;;23.58;5.13;;;12.10;99.90;;;;;;4167943;28;20041;-75
2023/11/14 07:28:15;;;;;;;27.92;5.57;;;12.10;99.90;;;;;;4169929;28;20033;-73
2023/11/14 07:30:16;;;;;;;27.90;5.40;;;12.10;99.90;;;;;;4169256;28;20124;-74
2023/11/14 07:32:17;;;;;;;21.17;4.73;;;12.10;99.90;;;;;;4170859;28;20033;-73
2023/11/14 07:34:19;;;;;;;17.35;4.10;;;12.10;99.90;;;;;;4164431;28;20699;-73
2023/11/14 07:36:20;;;;;;;21.08;4.15;;;12.20;99.90;;;;;;4164470;28;20100;-73
2023/11/14 07:38:20;;;;;;;29.80;5.50;;;12.20;99.90;;;;;;4164952;28;20075;-74
2023/11/14 07:40:21;;;;;;;32.97;4.90;;;12.20;99.90;;;;;;4168837;28;20041;-73
2023/11/14 07:42:23;;;;;;;28.80;5.80;;;12.20;99.90;;;;;;4166186;28;20056;-74
2023/11/14 07:44:24;;;;;;;30.47;5.03;;;12.30;99.90;;;;;;4170864;28;20037;-73
2023/11/14 07:46:24;;;;;;;21.58;4.53;;;12.30;99.90;;;;;;4169161;28;20289;-73
2023/11/14 07:48:25;;;;;;;23.58;5.03;;;12.30;99.90;;;;;;4169537;28;20120;-69
2023/11/14 07:50:26;;;;;;;31.20;5.70;;;12.30;99.90;;;;;;4167888;28;21095;-69
2023/11/14 07:52:27;;;;;;;25.73;4.80;;;12.30;99.90;;;;;;4171425;28;20033;-69
2023/11/14 07:54:28;;;;;;;30.23;5.15;;;12.30;99.90;;;;;;4171460;28;20954;-70
2023/11/14 07:56:29;;;;;;;28.02;4.72;;;12.40;99.90;;;;;;4167810;28;20041;-69
2023/11/14 07:58:29;;;;;;;27.98;4.90;;;12.40;99.90;;;;;;4172577;28;20037;-69
2023/11/14 08:00:31;;;;;;;26.00;3.97;;;12.40;99.90;;;;;;4170473;28;20082;-70
2023/11/14 08:02:32;;;;;;;24.25;4.70;;;12.40;99.90;;;;;;4172267;28;20040;-70
2023/11/14 08:04:32;;;;;;;26.33;4.65;;;12.40;99.90;;;;;;4174682;28;20485;-70
2023/11/14 08:06:33;;;;;;;22.55;4.68;;;12.40;99.90;;;;;;4173605;28;20106;-70
2023/11/14 08:08:35;;;;;;;19.75;3.40;;;12.40;99.90;;;;;;4189659;28;20474;-70
2023/11/14 08:10:37;;;;;;;18.42;3.78;;;12.50;99.90;;;;;;4171820;28;20480;-69
2023/11/14 08:12:37;;;;;;;23.33;4.50;;;12.50;99.90;;;;;;4175819;28;20064;-70
2023/11/14 08:14:41;;;;;;;21.50;4.18;;;12.40;99.90;;;;;;4173947;28;20045;-69
2023/11/14 08:16:41;;;;;;;24.08;4.15;;;12.50;99.90;;;;;;4172530;28;20032;-70
2023/11/14 08:18:42;;;;;;;21.27;4.50;;;12.50;99.90;;;;;;4174083;28;20068;-70
2023/11/14 08:20:43;;;;;;;24.73;4.32;;;12.50;99.90;;;;;;4154572;28;20413;-70
2023/11/14 08:22:43;;;;;;;24.02;4.57;;;12.50;99.90;;;;;;4173927;28;20029;-70
2023/11/14 08:24:44;;;;;;;18.00;4.20;;;12.60;99.90;;;;;;4172032;28;20107;-70
2023/11/14 08:26:44;;;;;;;24.95;4.70;;;12.60;99.90;;;;;;4172274;28;20037;-70
2023/11/14 08:28:45;;;;;;;17.50;3.88;;;12.60;99.90;;;;;;4173791;28;20754;-70
2023/11/14 08:30:46;;;;;;;21.45;4.10;;;12.60;99.90;;;;;;4172134;28;20063;-69
2023/11/14 08:32:47;;;;;;;14.68;3.78;;;12.60;99.90;;;;;;4172316;28;20116;-70
2023/11/14 08:34:48;;;;;;;20.55;4.35;;;12.60;99.90;;;;;;4170821;28;20124;-70
2023/11/14 08:36:48;;;;;;;28.13;4.70;;;12.70;99.90;;;;;;4188691;28;20522;-70
2023/11/14 08:38:49;;;;;;;25.20;4.57;;;12.70;99.90;;;;;;4172838;28;20152;-70
2023/11/14 08:40:50;;;;;;;20.27;4.55;;;12.70;99.90;;;;;;4170894;28;20485;-70
2023/11/14 08:42:51;;;;;;;18.48;4.35;;;12.70;99.90;;;;;;4173834;28;20029;-70
2023/11/14 08:44:52;;;;;;;17.17;3.40;;;12.80;99.90;;;;;;4154949;28;20042;-70
2023/11/14 08:46:53;;;;;;;22.58;4.25;;;12.80;99.90;;;;;;4171287;28;20183;-70
2023/11/14 08:48:54;;;;;;;24.80;4.72;;;12.80;99.90;;;;;;4171724;28;20323;-70
2023/11/14 08:50:54;;;;;;;14.93;3.97;;;12.80;99.90;;;;;;4172585;28;20057;-70
2023/11/14 08:52:55;;;;;;;18.25;4.40;;;12.80;99.90;;;;;;4173686;28;20380;-70
2023/11/14 08:54:57;;;;;;;18.02;4.00;;;12.90;99.90;;;;;;4172854;28;20072;-70
2023/11/14 08:56:57;;;;;;;19.00;4.18;;;12.80;99.90;;;;;;4170237;28;20539;-70
2023/11/14 08:58:58;;;;;;;18.55;4.03;;;12.90;99.90;;;;;;4172521;28;20503;-70
2023/11/14 09:00:59;;;;;;;25.58;4.35;;;12.80;99.90;;;;;;4170340;28;20041;-70
2023/11/14 09:03:00;;;;;;;16.05;3.30;;;12.80;99.90;;;;;;4173573;28;20416;-70
2023/11/14 09:05:01;;;;;;;17.08;3.97;;;12.90;99.90;;;;;;4167206;28;20052;-71
2023/11/14 09:07:02;;;;;;;20.55;4.30;;;12.90;99.90;;;;;;4172997;28;20037;-71
2023/11/14 09:09:02;;;;;;;19.35;4.15;;;12.90;99.90;;;;;;4171120;28;20029;-68
2023/11/14 09:11:06;;;;;;;16.90;3.88;;;13.00;99.90;;;;;;4170594;28;20051;-69
2023/11/14 09:13:11;;;;;;;12.88;3.17;;;13.00;99.90;;;;;;4171598;28;20063;-68
2023/11/14 09:15:13;;;;;;;19.58;4.07;;;13.10;99.90;;;;;;4167162;28;20459;-69
2023/11/14 09:17:14;;;;;;;20.33;4.03;;;13.10;99.90;;;;;;4187527;28;20036;-69
2023/11/14 09:19:14;;;;;;;16.13;3.28;;;13.10;99.90;;;;;;4170518;28;20042;-68
2023/11/14 09:21:15;;;;;;;14.48;3.15;;;13.20;99.90;;;;;;4170963;28;20112;-68
2023/11/14 09:23:15;;;;;;;17.42;4.07;;;13.30;99.90;;;;;;4173130;28;20055;-69
2023/11/14 09:25:16;;;;;;;14.43;3.15;;;13.30;99.90;;;;;;4171357;28;20033;-69
2023/11/14 09:27:17;;;;;;;24.15;4.00;;;13.30;99.90;;;;;;4172410;28;20060;-68
2023/11/14 09:29:17;;;;;;;16.45;3.47;;;13.40;99.90;;;;;;4162498;28;21504;-68
2023/11/14 09:31:18;;;;;;;15.27;3.38;;;13.40;99.90;;;;;;4164880;28;20457;-68
2023/11/14 09:33:19;;;;;;;18.58;4.00;;;13.40;99.90;;;;;;4171220;28;20033;-69
2023/11/14 09:35:20;;;;;;;18.30;4.20;;;13.40;99.90;;;;;;4170630;28;20040;-69
2023/11/14 09:37:20;;;;;;;19.42;3.92;;;13.40;99.90;;;;;;4171616;28;20053;-68
2023/11/14 09:39:21;;;;;;;23.48;3.75;;;13.50;99.90;;;;;;4165920;28;20049;-68
2023/11/14 09:41:23;;;;;;;22.10;4.22;;;13.60;99.90;;;;;;4169588;28;20036;-68
2023/11/14 09:43:24;;;;;;;17.27;4.07;;;13.70;99.90;;;;;;4171106;28;20174;-68
2023/11/14 09:45:25;;;;;;;23.05;4.70;;;13.80;99.90;;;;;;4170921;28;20041;-68
2023/11/14 09:47:26;;;;;;;25.58;4.40;;;13.90;99.90;;;;;;4170653;28;20390;-69
2023/11/14 09:49:27;;;;;;;20.70;5.15;;;13.90;99.90;;;;;;4171028;28;20041;-68
2023/11/14 09:51:31;;;;;;;17.30;3.85;;;14.00;99.90;;;;;;4170176;28;20029;-68
2023/11/14 09:53:32;;;;;;;22.42;4.97;;;14.10;99.90;;;;;;4171603;28;20053;-68
2023/11/14 09:55:33;;;;;;;27.75;5.13;;;14.10;99.90;;;;;;4169518;28;20041;-68
2023/11/14 09:57:34;;;;;;;19.20;4.13;;;14.10;99.90;;;;;;4172106;28;20252;-69
2023/11/14 09:59:36;;;;;;;20.92;5.00;;;14.10;99.90;;;;;;4170541;28;20041;-68
2023/11/14 10:01:39;;;;;;;21.48;4.07;;;14.10;99.90;;;;;;4169211;28;20045;-68
2023/11/14 10:03:41;;;;;;;17.70;3.53;;;14.10;99.90;;;;;;4171945;28;20044;-68
2023/11/14 10:05:42;;;;;;;22.30;4.55;;;14.10;99.90;;;;;;4169348;28;20108;-70
2023/11/14 10:07:43;;;;;;;17.42;4.10;;;14.20;99.90;;;;;;4170955;28;20037;-69
2023/11/14 10:09:44;;;;;;;21.23;4.57;;;14.20;99.90;;;;;;4166941;28;20055;-69
2023/11/14 10:11:46;;;;;;;22.25;3.83;;;14.20;99.90;;;;;;4169454;28;20079;-69
2023/11/14 10:13:47;;;;;;;17.65;4.00;;;14.10;99.90;;;;;;4171081;28;20028;-69
2023/11/14 10:15:48;;;;;;;22.25;5.05;;;14.10;99.90;;;;;;4168966;28;20178;-69
2023/11/14 10:17:48;;;;;;;18.15;4.13;;;14.00;99.90;;;;;;4171639;28;20110;-70
2023/11/14 10:19:56;;;;;;;27.70;5.00;;;13.90;99.90;;;;;;4170241;28;20040;-72
2023/11/14 10:22:04;;;;;;;20.80;4.32;;;13.90;99.90;;;;;;4167986;28;20451;-74